createdAt,value
2019-03-24T00:00:07.762Z,0
2019-03-24T00:01:06.403Z,0
2019-03-24T00:02:05.384Z,0
2019-03-24T00:03:04.133Z,0
2019-03-24T00:04:02.798Z,0
2019-03-24T00:05:01.401Z,0
2019-03-24T00:06:00.064Z,0
2019-03-24T00:06:58.736Z,0
2019-03-24T00:07:57.470Z,0
2019-03-24T00:08:56.179Z,0
2019-03-24T00:09:54.881Z,0
2019-03-24T00:10:53.727Z,0
2019-03-24T00:11:52.388Z,0
2019-03-24T00:12:51.010Z,0
2019-03-24T00:13:49.734Z,0
2019-03-24T00:14:48.375Z,0
2019-03-24T00:15:47.030Z,0
2019-03-24T00:16:45.955Z,0
2019-03-24T00:17:44.599Z,0
2019-03-24T00:18:43.336Z,0
2019-03-24T00:19:41.963Z,0
2019-03-24T00:20:40.664Z,0
2019-03-24T00:21:39.404Z,0
2019-03-24T00:22:38.065Z,0
2019-03-24T00:23:36.641Z,0
2019-03-24T00:24:35.422Z,0
2019-03-24T00:25:34.675Z,0
2019-03-24T00:26:33.409Z,0
2019-03-24T00:27:32.030Z,0
2019-03-24T00:28:30.635Z,0
2019-03-24T00:29:29.369Z,0
2019-03-24T00:30:28.109Z,0
2019-03-24T00:31:26.739Z,0
2019-03-24T00:32:25.499Z,0
2019-03-24T00:33:24.256Z,0
2019-03-24T00:34:22.877Z,0
2019-03-24T00:35:21.715Z,0
2019-03-24T00:36:20.351Z,0
2019-03-24T00:37:19.160Z,0
2019-03-24T00:38:17.821Z,0
2019-03-24T00:39:16.476Z,0
2019-03-24T00:40:15.303Z,0
2019-03-24T00:41:14.228Z,0
2019-03-24T00:42:12.916Z,0
2019-03-24T00:43:11.685Z,0
2019-03-24T00:44:10.291Z,0
2019-03-24T00:45:08.999Z,0
2019-03-24T00:46:07.745Z,0
2019-03-24T00:47:06.433Z,0
2019-03-24T00:48:05.045Z,0
2019-03-24T00:49:03.879Z,0
2019-03-24T00:50:02.499Z,0
2019-03-24T00:51:01.327Z,0
2019-03-24T00:51:59.973Z,0
2019-03-24T00:52:58.594Z,0
2019-03-24T00:53:57.543Z,0
2019-03-24T00:54:56.229Z,0
2019-03-24T00:55:54.863Z,0
2019-03-24T00:56:53.454Z,0
2019-03-24T00:57:52.087Z,0
2019-03-24T00:58:50.706Z,0
2019-03-24T00:59:49.583Z,0
2019-03-24T01:00:48.301Z,0
2019-03-24T01:01:46.829Z,0
2019-03-24T01:02:45.502Z,0
2019-03-24T01:03:44.063Z,0
2019-03-24T01:04:42.724Z,0
2019-03-24T01:05:41.664Z,0
2019-03-24T01:06:40.292Z,0
2019-03-24T01:07:38.904Z,0
2019-03-24T01:08:37.631Z,0
2019-03-24T01:09:36.235Z,0
2019-03-24T01:10:34.822Z,0
2019-03-24T01:11:33.762Z,0
2019-03-24T01:12:32.386Z,0
2019-03-24T01:13:31.101Z,0
2019-03-24T01:14:29.799Z,0
2019-03-24T01:15:28.411Z,0
2019-03-24T01:16:27.038Z,0
2019-03-24T01:17:25.844Z,0
2019-03-24T01:18:24.450Z,0
2019-03-24T01:19:23.141Z,0
2019-03-24T01:20:21.824Z,0
2019-03-24T01:21:20.506Z,0
2019-03-24T01:22:19.438Z,0
2019-03-24T01:23:18.179Z,0
2019-03-24T01:24:16.841Z,0
2019-03-24T01:25:15.524Z,0
2019-03-24T01:26:14.269Z,0
2019-03-24T01:27:12.980Z,0
2019-03-24T01:28:11.700Z,0
2019-03-24T01:29:10.348Z,0
2019-03-24T01:30:08.908Z,0
2019-03-24T01:31:07.512Z,0
2019-03-24T01:32:06.210Z,0
2019-03-24T01:33:04.844Z,0
2019-03-24T01:34:03.618Z,0
2019-03-24T01:35:02.283Z,0
2019-03-24T01:36:00.903Z,0
2019-03-24T01:36:59.553Z,0
2019-03-24T01:37:58.231Z,0
2019-03-24T01:38:56.903Z,0
2019-03-24T01:39:55.574Z,0
2019-03-24T01:40:54.365Z,0
2019-03-24T01:41:53.015Z,0
2019-03-24T01:42:51.708Z,0
2019-03-24T01:43:50.466Z,0
2019-03-24T01:44:49.419Z,0
2019-03-24T01:45:57.882Z,0
2019-03-24T01:46:46.755Z,0
2019-03-24T01:47:45.465Z,0
2019-03-24T01:48:44.170Z,0
2019-03-24T01:49:42.826Z,0
2019-03-24T01:50:41.661Z,0
2019-03-24T01:51:40.502Z,0
2019-03-24T01:52:39.128Z,0
2019-03-24T01:53:37.923Z,0
2019-03-24T01:54:36.596Z,0
2019-03-24T01:55:35.849Z,0
2019-03-24T01:56:34.549Z,0
2019-03-24T01:57:33.245Z,0
2019-03-24T01:58:31.845Z,0
2019-03-24T01:59:30.476Z,0
2019-03-24T02:00:29.103Z,0
2019-03-24T02:01:27.844Z,0
2019-03-24T02:02:26.509Z,0
2019-03-24T02:03:25.294Z,0
2019-03-24T02:04:23.929Z,0
2019-03-24T02:05:22.537Z,0
2019-03-24T02:06:21.197Z,0
2019-03-24T02:07:19.858Z,0
2019-03-24T02:08:18.492Z,0
2019-03-24T02:09:17.138Z,0
2019-03-24T02:10:15.827Z,0
2019-03-24T02:11:14.484Z,0
2019-03-24T02:12:13.186Z,0
2019-03-24T02:13:11.971Z,0
2019-03-24T02:14:10.601Z,0
2019-03-24T02:15:09.233Z,0
2019-03-24T02:16:09.431Z,0
2019-03-24T02:17:06.617Z,0
2019-03-24T02:18:05.219Z,0
2019-03-24T02:19:04.009Z,0
2019-03-24T02:20:02.644Z,0
2019-03-24T02:21:01.331Z,0
2019-03-24T02:21:59.993Z,0
2019-03-24T02:22:58.616Z,0
2019-03-24T02:23:57.261Z,0
2019-03-24T02:24:55.997Z,0
2019-03-24T02:25:54.698Z,0
2019-03-24T02:26:53.385Z,0
2019-03-24T02:27:52.120Z,0
2019-03-24T02:28:50.776Z,0
2019-03-24T02:29:49.810Z,0
2019-03-24T02:30:48.467Z,0
2019-03-24T02:31:47.199Z,0
2019-03-24T02:32:45.828Z,0
2019-03-24T02:33:44.447Z,0
2019-03-24T02:34:43.081Z,0
2019-03-24T02:35:41.824Z,0
2019-03-24T02:36:40.461Z,0
2019-03-24T02:37:39.089Z,0
2019-03-24T02:38:37.886Z,0
2019-03-24T02:39:36.509Z,0
2019-03-24T02:40:35.129Z,0
2019-03-24T02:41:33.816Z,0
2019-03-24T02:42:32.480Z,0
2019-03-24T02:43:31.099Z,0
2019-03-24T02:44:29.873Z,0
2019-03-24T02:45:28.518Z,0
2019-03-24T02:46:27.217Z,0
2019-03-24T02:47:26.021Z,0
2019-03-24T02:48:24.650Z,0
2019-03-24T02:49:23.387Z,0
2019-03-24T02:50:22.037Z,0
2019-03-24T02:51:20.649Z,0
2019-03-24T02:52:19.296Z,0
2019-03-24T02:53:18.129Z,0
2019-03-24T02:54:16.765Z,0
2019-03-24T02:55:15.590Z,0
2019-03-24T02:56:14.244Z,0
2019-03-24T02:57:12.866Z,0
2019-03-24T02:58:11.517Z,0
2019-03-24T02:59:10.182Z,0
2019-03-24T03:00:08.827Z,0
2019-03-24T03:01:07.618Z,0
2019-03-24T03:02:06.277Z,0
2019-03-24T03:03:04.882Z,0
2019-03-24T03:04:03.735Z,0
2019-03-24T03:05:02.381Z,0
2019-03-24T03:06:01.068Z,0
2019-03-24T03:06:59.767Z,0
2019-03-24T03:07:58.435Z,0
2019-03-24T03:08:57.044Z,0
2019-03-24T03:09:55.716Z,0
2019-03-24T03:10:54.397Z,0
2019-03-24T03:11:53.061Z,0
2019-03-24T03:12:51.818Z,0
2019-03-24T03:13:50.405Z,0
2019-03-24T03:14:49.078Z,0
2019-03-24T03:15:47.769Z,0
2019-03-24T03:16:46.427Z,0
2019-03-24T03:17:45.096Z,0
2019-03-24T03:18:43.867Z,0
2019-03-24T03:19:42.492Z,0
2019-03-24T03:20:41.127Z,0
2019-03-24T03:21:39.764Z,0
2019-03-24T03:22:38.395Z,0
2019-03-24T03:23:37.222Z,0
2019-03-24T03:24:36.089Z,0
2019-03-24T03:25:34.721Z,0
2019-03-24T03:26:33.367Z,0
2019-03-24T03:27:32.181Z,0
2019-03-24T03:28:30.841Z,0
2019-03-24T03:29:29.578Z,0
2019-03-24T03:30:28.248Z,0
2019-03-24T03:31:26.893Z,0
2019-03-24T03:32:25.835Z,0
2019-03-24T03:33:24.504Z,0
2019-03-24T03:34:23.158Z,0
2019-03-24T03:35:21.795Z,0
2019-03-24T03:36:20.455Z,0
2019-03-24T03:37:19.102Z,0
2019-03-24T03:38:17.825Z,0
2019-03-24T03:39:16.479Z,0
2019-03-24T03:40:15.165Z,0
2019-03-24T03:41:13.825Z,0
2019-03-24T03:42:12.481Z,0
2019-03-24T03:43:11.252Z,0
2019-03-24T03:44:10.009Z,0
2019-03-24T03:45:08.688Z,0
2019-03-24T03:46:07.326Z,0
2019-03-24T03:47:06.053Z,0
2019-03-24T03:48:04.710Z,0
2019-03-24T03:49:03.575Z,0
2019-03-24T03:50:02.344Z,0
2019-03-24T03:51:00.980Z,0
2019-03-24T03:51:59.659Z,0
2019-03-24T03:52:58.360Z,0
2019-03-24T03:53:59.066Z,0
2019-03-24T03:54:55.684Z,0
2019-03-24T03:55:54.391Z,0
2019-03-24T03:56:53.063Z,0
2019-03-24T03:57:51.725Z,0
2019-03-24T03:58:50.483Z,0
2019-03-24T03:59:49.195Z,0
2019-03-24T04:00:47.962Z,0
2019-03-24T04:01:46.622Z,0
2019-03-24T04:02:45.242Z,0
2019-03-24T04:03:44.214Z,0
2019-03-24T04:04:42.857Z,0
2019-03-24T04:05:41.606Z,0
2019-03-24T04:06:40.292Z,0
2019-03-24T04:07:38.919Z,0
2019-03-24T04:08:37.727Z,0
2019-03-24T04:09:36.368Z,0
2019-03-24T04:10:35.023Z,0
2019-03-24T04:11:33.703Z,0
2019-03-24T04:12:32.453Z,0
2019-03-24T04:13:31.091Z,0
2019-03-24T04:14:29.870Z,0
2019-03-24T04:15:28.502Z,0
2019-03-24T04:16:27.215Z,0
2019-03-24T04:17:25.872Z,0
2019-03-24T04:18:24.528Z,0
2019-03-24T04:19:23.198Z,0
2019-03-24T04:20:21.996Z,0
2019-03-24T04:21:21.028Z,0
2019-03-24T04:22:19.736Z,0
2019-03-24T04:23:18.410Z,0
2019-03-24T04:24:17.059Z,0
2019-03-24T04:25:15.762Z,0
2019-03-24T04:26:14.409Z,0
2019-03-24T04:27:13.044Z,0
2019-03-24T04:28:12.025Z,0
2019-03-24T04:29:10.577Z,0
2019-03-24T04:30:10.016Z,0
2019-03-24T04:31:08.638Z,0
2019-03-24T04:32:07.402Z,0
2019-03-24T04:33:06.037Z,0
2019-03-24T04:34:04.705Z,0
2019-03-24T04:35:03.340Z,0
2019-03-24T04:36:02.114Z,0
2019-03-24T04:37:00.743Z,0
2019-03-24T04:37:59.444Z,0
2019-03-24T04:38:58.107Z,0
2019-03-24T04:39:56.775Z,0
2019-03-24T04:40:55.681Z,0
2019-03-24T04:41:54.314Z,0
2019-03-24T04:42:53.048Z,0
2019-03-24T04:43:51.733Z,0
2019-03-24T04:44:50.343Z,0
2019-03-24T04:45:48.973Z,0
2019-03-24T04:46:47.804Z,0
2019-03-24T04:47:46.481Z,0
2019-03-24T04:48:45.091Z,0
2019-03-24T04:51:25.350Z,0
2019-03-24T04:52:24.221Z,4
2019-03-24T04:53:22.994Z,0
2019-03-24T04:54:21.723Z,4
2019-03-24T04:55:20.378Z,0
2019-03-24T04:56:19.186Z,4
2019-03-24T04:57:17.888Z,4
2019-03-24T05:00:57.010Z,8
2019-03-24T05:01:55.805Z,8
2019-03-24T05:02:54.443Z,12
2019-03-24T05:03:53.106Z,12
2019-03-24T05:04:51.926Z,16
2019-03-24T05:05:50.722Z,20
2019-03-24T05:06:49.429Z,24
2019-03-24T05:07:48.129Z,28
2019-03-24T05:08:46.783Z,32
2019-03-24T05:09:45.394Z,40
2019-03-24T05:10:43.982Z,40
2019-03-24T05:11:42.611Z,48
2019-03-24T05:12:41.331Z,56
2019-03-24T05:13:39.994Z,64
2019-03-24T05:14:38.624Z,72
2019-03-24T05:15:37.297Z,80
2019-03-24T05:16:35.926Z,88
2019-03-24T05:17:34.574Z,100
2019-03-24T05:18:33.251Z,108
2019-03-24T05:19:31.997Z,120
2019-03-24T05:20:30.616Z,132
2019-03-24T05:21:29.469Z,144
2019-03-24T05:22:28.085Z,156
2019-03-24T05:23:26.780Z,168
2019-03-24T05:24:25.482Z,184
2019-03-24T05:25:24.140Z,200
2019-03-24T05:26:22.732Z,216
2019-03-24T05:27:21.477Z,232
2019-03-24T05:28:20.775Z,248
2019-03-24T05:29:18.733Z,272
2019-03-24T05:30:17.344Z,292
2019-03-24T05:31:16.218Z,312
2019-03-24T05:32:15.673Z,340
2019-03-24T05:33:14.316Z,364
2019-03-24T05:34:12.897Z,384
2019-03-24T05:35:11.642Z,412
2019-03-24T05:36:10.395Z,440
2019-03-24T05:37:09.054Z,464
2019-03-24T05:38:07.881Z,496
2019-03-24T05:39:06.635Z,520
2019-03-24T05:40:05.321Z,552
2019-03-24T05:41:04.031Z,576
2019-03-24T05:42:02.757Z,612
2019-03-24T05:43:01.427Z,644
2019-03-24T05:44:00.167Z,680
2019-03-24T05:44:58.789Z,716
2019-03-24T05:45:57.458Z,748
2019-03-24T05:46:56.224Z,784
2019-03-24T05:47:54.893Z,820
2019-03-24T05:48:53.593Z,868
2019-03-24T05:49:52.443Z,920
2019-03-24T05:50:51.163Z,964
2019-03-24T05:51:49.916Z,1008
2019-03-24T05:52:48.531Z,1052
2019-03-24T05:53:47.301Z,1096
2019-03-24T05:54:46.030Z,1136
2019-03-24T05:55:44.684Z,1180
2019-03-24T05:56:43.633Z,1228
2019-03-24T05:57:42.328Z,1272
2019-03-24T05:58:40.956Z,1316
2019-03-24T05:59:39.612Z,1364
2019-03-24T06:00:38.224Z,1408
2019-03-24T06:01:36.924Z,1464
2019-03-24T06:02:35.678Z,1512
2019-03-24T06:03:34.340Z,1564
2019-03-24T06:04:32.988Z,1612
2019-03-24T06:05:31.682Z,1664
2019-03-24T06:06:30.314Z,1712
2019-03-24T06:07:28.962Z,1764
2019-03-24T06:08:27.673Z,1816
2019-03-24T06:09:26.328Z,1872
2019-03-24T06:10:24.997Z,1928
2019-03-24T06:11:23.675Z,1980
2019-03-24T06:12:22.304Z,2036
2019-03-24T06:13:20.958Z,2088
2019-03-24T06:14:19.855Z,2144
2019-03-24T06:15:18.536Z,2196
2019-03-24T06:16:17.137Z,2252
2019-03-24T06:17:15.818Z,2304
2019-03-24T06:18:14.408Z,2356
2019-03-24T06:19:13.021Z,2412
2019-03-24T06:20:11.978Z,2472
2019-03-24T06:21:10.684Z,2528
2019-03-24T06:22:09.302Z,2576
2019-03-24T06:23:07.933Z,2608
2019-03-24T06:24:06.666Z,2632
2019-03-24T06:25:05.298Z,2708
2019-03-24T06:26:04.061Z,2792
2019-03-24T06:27:02.818Z,2856
2019-03-24T06:28:01.493Z,2916
2019-03-24T06:29:00.027Z,2984
2019-03-24T06:29:58.658Z,3036
2019-03-24T06:30:57.281Z,3092
2019-03-24T06:31:56.002Z,3148
2019-03-24T06:32:54.592Z,3200
2019-03-24T06:33:53.240Z,3248
2019-03-24T06:34:52.019Z,3300
2019-03-24T06:35:50.679Z,3356
2019-03-24T06:36:49.309Z,3404
2019-03-24T06:37:48.033Z,3460
2019-03-24T06:38:46.685Z,3508
2019-03-24T06:39:45.321Z,3560
2019-03-24T06:40:44.025Z,3616
2019-03-24T06:41:42.676Z,3664
2019-03-24T06:42:41.298Z,3712
2019-03-24T06:43:39.978Z,3752
2019-03-24T06:44:38.606Z,3792
2019-03-24T06:45:37.345Z,3844
2019-03-24T06:46:36.152Z,3896
2019-03-24T06:47:34.777Z,3952
2019-03-24T06:48:33.388Z,4000
2019-03-24T06:49:32.207Z,4060
2019-03-24T06:50:30.846Z,4092
2019-03-24T06:51:29.727Z,4144
2019-03-24T06:52:28.375Z,4188
2019-03-24T06:53:27.014Z,4236
2019-03-24T06:54:25.958Z,4276
2019-03-24T06:55:24.565Z,4332
2019-03-24T06:56:23.283Z,4376
2019-03-24T06:57:21.936Z,4432
2019-03-24T06:58:20.561Z,4456
2019-03-24T06:59:19.170Z,4492
2019-03-24T07:00:18.008Z,4540
2019-03-24T07:01:16.844Z,4568
2019-03-24T07:03:57.435Z,4648
2019-03-24T07:04:56.186Z,4676
2019-03-24T07:05:54.846Z,4688
2019-03-24T07:06:53.520Z,4728
2019-03-24T07:07:52.333Z,4760
2019-03-24T07:08:51.015Z,4792
2019-03-24T07:09:49.774Z,4848
2019-03-24T07:10:48.494Z,4884
2019-03-24T07:11:47.043Z,4892
2019-03-24T07:12:45.646Z,4904
2019-03-24T07:13:44.379Z,4900
2019-03-24T07:14:43.039Z,4908
2019-03-24T07:15:41.694Z,4928
2019-03-24T07:16:41.122Z,4912
2019-03-24T07:17:40.006Z,4952
2019-03-24T07:18:38.609Z,4968
2019-03-24T07:19:37.257Z,4960
2019-03-24T07:20:36.049Z,4976
2019-03-24T07:21:35.098Z,4984
2019-03-24T07:23:57.948Z,4992
2019-03-24T07:26:38.125Z,4988
2019-03-24T07:27:36.772Z,4980
2019-03-24T07:28:35.447Z,5004
2019-03-24T07:29:34.078Z,4992
2019-03-24T07:30:32.761Z,5056
2019-03-24T07:31:31.899Z,5100
2019-03-24T07:32:30.552Z,5096
2019-03-24T07:35:10.677Z,5108
2019-03-24T07:36:09.762Z,5120
2019-03-24T07:37:08.433Z,5096
2019-03-24T07:38:07.077Z,5048
2019-03-24T07:39:05.988Z,5040
2019-03-24T07:40:04.615Z,5004
2019-03-24T07:42:45.244Z,4908
2019-03-24T07:43:44.012Z,4780
2019-03-24T07:44:42.864Z,4608
2019-03-24T07:45:41.806Z,4680
2019-03-24T07:46:40.508Z,4784
2019-03-24T07:47:39.319Z,4916
2019-03-24T07:48:37.997Z,4980
2019-03-24T07:49:36.678Z,4896
2019-03-24T08:03:21.099Z,5084
2019-03-24T08:04:19.699Z,5100
2019-03-24T08:07:16.679Z,5152
2019-03-24T08:08:16.670Z,5136
2019-03-24T08:09:15.348Z,5128
2019-03-24T08:11:55.494Z,5092
2019-03-24T08:12:54.482Z,5084
2019-03-24T08:13:54.236Z,5080
2019-03-24T08:17:33.318Z,5056
2019-03-24T08:18:34.470Z,5052
2019-03-24T08:21:14.840Z,5052
2019-03-24T08:22:13.874Z,5060
2019-03-24T08:23:12.501Z,5052
2019-03-24T08:32:03.244Z,4944
2019-03-24T08:33:02.027Z,4928
2019-03-24T08:34:00.704Z,4920
2019-03-24T08:36:40.758Z,4876
2019-03-24T08:37:39.556Z,4852
2019-03-24T08:38:38.233Z,4844
2019-03-24T08:39:37.126Z,4832
2019-03-24T08:40:36.030Z,4820
2019-03-24T08:41:34.642Z,4800
2019-03-24T08:43:50.744Z,4760
2019-03-24T08:44:49.383Z,4740
2019-03-24T08:45:48.125Z,4732
2019-03-24T08:46:47.184Z,4716
2019-03-24T08:47:45.511Z,4704
2019-03-24T08:48:44.273Z,4688
2019-03-24T08:49:42.932Z,4680
2019-03-24T08:50:41.762Z,4668
2019-03-24T08:51:40.489Z,4664
2019-03-24T08:52:39.427Z,4620
2019-03-24T08:53:38.145Z,4652
2019-03-24T08:54:36.811Z,4644
2019-03-24T08:55:35.477Z,4632
2019-03-24T08:56:34.406Z,4632
2019-03-24T08:57:33.037Z,4628
2019-03-24T08:58:31.676Z,4620
2019-03-24T08:59:30.698Z,4616
2019-03-24T09:01:46.289Z,4616
2019-03-24T09:02:45.429Z,4604
2019-03-24T09:03:44.313Z,4592
2019-03-24T09:06:10.096Z,4548
2019-03-24T09:07:08.729Z,4536
2019-03-24T09:08:08.421Z,4524
2019-03-24T09:09:07.561Z,4516
2019-03-24T09:10:06.223Z,4516
2019-03-24T09:11:06.720Z,4516
2019-03-24T09:12:05.377Z,4508
2019-03-24T09:13:04.377Z,4508
2019-03-24T09:14:02.968Z,4508
2019-03-24T09:15:01.798Z,4496
2019-03-24T09:16:00.470Z,4496
2019-03-24T09:16:59.088Z,4492
2019-03-24T09:17:57.901Z,4488
2019-03-24T09:18:56.607Z,4484
2019-03-24T09:22:36.167Z,4440
2019-03-24T09:23:34.798Z,4428
2019-03-24T09:24:33.431Z,4412
2019-03-24T09:25:32.223Z,4400
2019-03-24T09:26:31.527Z,4388
2019-03-24T09:27:30.223Z,4384
2019-03-24T09:28:28.829Z,4376
2019-03-24T09:29:27.798Z,4372
2019-03-24T09:30:26.391Z,4364
2019-03-24T09:31:25.102Z,4348
2019-03-24T09:32:23.898Z,4332
2019-03-24T09:42:51.623Z,4200
2019-03-24T09:45:32.033Z,4180
2019-03-24T09:46:31.049Z,4172
2019-03-24T09:49:11.448Z,4124
2019-03-24T09:50:10.439Z,4108
2019-03-24T09:51:09.074Z,4092
2019-03-24T09:52:08.051Z,4080
2019-03-24T09:53:06.693Z,4068
2019-03-24T09:55:47.475Z,4056
2019-03-24T09:59:31.465Z,4020
2019-03-24T10:03:10.680Z,4016
2019-03-24T10:04:09.363Z,4020
2019-03-24T10:06:06.943Z,4020
2019-03-24T10:07:05.650Z,4008
2019-03-24T10:09:28.353Z,3980
2019-03-24T10:10:27.035Z,3972
2019-03-24T10:11:25.710Z,3964
2019-03-24T10:13:23.934Z,3956
2019-03-24T10:14:22.590Z,3940
2019-03-24T10:15:21.292Z,3936
2019-03-24T10:16:20.074Z,3924
2019-03-24T10:17:18.718Z,3912
2019-03-24T10:18:17.348Z,3896
2019-03-24T10:19:16.012Z,3892
2019-03-24T10:20:14.629Z,3884
2019-03-24T10:21:13.252Z,3872
2019-03-24T10:22:11.893Z,3864
2019-03-24T10:23:10.679Z,3856
2019-03-24T10:24:09.402Z,3844
2019-03-24T10:25:08.085Z,3836
2019-03-24T10:26:06.867Z,3828
2019-03-24T10:27:05.473Z,3828
2019-03-24T10:28:04.298Z,3820
2019-03-24T10:29:02.973Z,3812
2019-03-24T10:30:01.778Z,3792
2019-03-24T10:31:01.047Z,3780
2019-03-24T10:31:59.787Z,3772
2019-03-24T10:32:58.407Z,3768
2019-03-24T10:33:59.934Z,3764
2019-03-24T10:34:58.609Z,3764
2019-03-24T10:35:57.380Z,3760
2019-03-24T10:36:56.039Z,3760
2019-03-24T10:37:54.637Z,3752
2019-03-24T10:38:53.278Z,3748
2019-03-24T10:39:51.968Z,3744
2019-03-24T10:40:51.058Z,3740
2019-03-24T10:41:49.841Z,3744
2019-03-24T10:42:48.459Z,3744
2019-03-24T10:45:28.882Z,3728
2019-03-24T10:46:27.748Z,3724
2019-03-24T10:47:26.407Z,3720
2019-03-24T10:48:33.269Z,3712
2019-03-24T10:49:24.921Z,3712
2019-03-24T10:50:22.585Z,3708
2019-03-24T10:51:22.334Z,3696
2019-03-24T10:52:21.033Z,3688
2019-03-24T10:53:19.991Z,3684
2019-03-24T10:54:18.639Z,3672
2019-03-24T10:55:17.303Z,3672
2019-03-24T10:56:16.341Z,3668
2019-03-24T10:57:14.999Z,3660
2019-03-24T10:58:13.707Z,3652
2019-03-24T10:59:12.395Z,3644
2019-03-24T11:00:10.982Z,3640
2019-03-24T11:01:09.624Z,3636
2019-03-24T11:02:08.380Z,3636
2019-03-24T11:06:04.460Z,3632
2019-03-24T11:07:03.131Z,3632
2019-03-24T11:08:02.010Z,3628
2019-03-24T11:09:00.697Z,3632
2019-03-24T11:09:59.341Z,3632
2019-03-24T11:10:58.143Z,3632
2019-03-24T11:11:56.866Z,3632
2019-03-24T11:14:55.611Z,3620
2019-03-24T11:15:54.347Z,3620
2019-03-24T11:16:53.034Z,3616
2019-03-24T11:19:04.427Z,3608
2019-03-24T11:20:03.787Z,3596
2019-03-24T11:21:02.415Z,3588
2019-03-24T11:22:01.005Z,3584
2019-03-24T11:24:41.445Z,3584
2019-03-24T11:25:40.808Z,3584
2019-03-24T11:26:39.565Z,3584
2019-03-24T11:27:38.287Z,3580
2019-03-24T11:28:36.936Z,3580
2019-03-24T11:29:35.897Z,3572
2019-03-24T11:30:34.558Z,3568
2019-03-24T11:31:33.189Z,3572
2019-03-24T11:32:31.880Z,3572
2019-03-24T11:33:30.527Z,3576
2019-03-24T11:34:29.190Z,3580
2019-03-24T11:35:28.172Z,3580
2019-03-24T11:36:26.935Z,3588
2019-03-24T11:37:26.640Z,3600
2019-03-24T11:38:26.227Z,3604
2019-03-24T11:39:24.982Z,3608
2019-03-24T11:40:24.124Z,3616
2019-03-24T11:41:23.762Z,3616
2019-03-24T11:42:22.421Z,3624
2019-03-24T11:44:43.094Z,3652
2019-03-24T11:45:41.818Z,3668
2019-03-24T11:46:40.500Z,3676
2019-03-24T11:53:23.127Z,3576
2019-03-24T11:54:22.790Z,3556
2019-03-24T11:55:21.464Z,3540
2019-03-24T11:56:20.174Z,3532
2019-03-24T11:59:00.983Z,3520
2019-03-24T12:01:41.197Z,3528
2019-03-24T12:02:40.134Z,3536
2019-03-24T12:03:40.381Z,3540
2019-03-24T12:04:39.123Z,3544
2019-03-24T12:05:37.803Z,3556
2019-03-24T12:06:36.577Z,3556
2019-03-24T12:07:35.371Z,3560
2019-03-24T12:08:34.477Z,3556
2019-03-24T12:09:33.335Z,3556
2019-03-24T12:13:12.813Z,3556
2019-03-24T12:14:12.089Z,3560
2019-03-24T12:15:11.810Z,3556
2019-03-24T12:17:34.948Z,3536
2019-03-24T12:18:33.808Z,3532
2019-03-24T12:19:33.408Z,3532
2019-03-24T12:20:31.991Z,3548
2019-03-24T12:21:30.650Z,3544
2019-03-24T12:22:29.271Z,3544
2019-03-24T12:23:28.067Z,3532
2019-03-24T12:25:54.558Z,3532
2019-03-24T12:26:53.229Z,3528
2019-03-24T12:27:51.994Z,3532
2019-03-24T12:28:50.700Z,3540
2019-03-24T12:29:49.424Z,3552
2019-03-24T12:30:48.302Z,3576
2019-03-24T12:31:46.998Z,3588
2019-03-24T12:32:45.565Z,3588
2019-03-24T12:33:44.311Z,3572
2019-03-24T12:34:42.904Z,3572
2019-03-24T12:35:41.625Z,3576
2019-03-24T12:36:40.281Z,3572
2019-03-24T12:37:38.946Z,3560
2019-03-24T12:40:19.430Z,3540
2019-03-24T12:41:18.234Z,3532
2019-03-24T12:42:16.875Z,3552
2019-03-24T12:43:19.581Z,3560
2019-03-24T12:44:14.374Z,3564
2019-03-24T12:45:13.380Z,3568
2019-03-24T12:46:12.023Z,3572
2019-03-24T12:47:11.879Z,3572
2019-03-24T12:48:10.639Z,3580
2019-03-24T12:49:09.376Z,3588
2019-03-24T12:50:09.419Z,3600
2019-03-24T12:51:06.690Z,3616
2019-03-24T12:52:05.361Z,3636
2019-03-24T12:53:04.096Z,3644
2019-03-24T12:54:02.716Z,3656
2019-03-24T12:55:01.558Z,3652
2019-03-24T12:56:00.245Z,3640
2019-03-24T12:56:58.945Z,3652
2019-03-24T12:57:57.976Z,3644
2019-03-24T12:58:56.613Z,3632
2019-03-24T12:59:55.231Z,3604
2019-03-24T13:00:54.088Z,3588
2019-03-24T13:01:52.922Z,3564
2019-03-24T13:02:51.339Z,3556
2019-03-24T13:03:49.979Z,3572
2019-03-24T13:04:48.676Z,3576
2019-03-24T13:05:47.264Z,3580
2019-03-24T13:06:45.886Z,3568
2019-03-24T13:07:44.653Z,3556
2019-03-24T13:08:43.382Z,3556
2019-03-24T13:09:42.106Z,3564
2019-03-24T13:10:40.830Z,3576
2019-03-24T13:11:39.536Z,3572
2019-03-24T13:12:38.409Z,3596
2019-03-24T13:13:37.133Z,3600
2019-03-24T13:14:36.242Z,3616
2019-03-24T13:15:34.940Z,3580
2019-03-24T13:16:33.561Z,3500
2019-03-24T13:17:32.781Z,3500
2019-03-24T13:18:31.533Z,3456
2019-03-24T13:22:10.438Z,3468
2019-03-24T13:23:09.082Z,3456
2019-03-24T13:24:07.814Z,3440
2019-03-24T13:25:06.498Z,3408
2019-03-24T13:46:15.387Z,3780
2019-03-24T13:47:14.251Z,3664
2019-03-24T13:48:12.924Z,3684
2019-03-24T13:49:11.621Z,3732
2019-03-24T13:50:10.469Z,3768
2019-03-24T13:51:09.160Z,3784
2019-03-24T13:52:08.230Z,3896
2019-03-24T13:53:06.841Z,3916
2019-03-24T13:54:05.778Z,3836
2019-03-24T13:55:04.369Z,3852
2019-03-24T13:57:45.033Z,3996
2019-03-24T14:00:28.129Z,3840
2019-03-24T14:03:10.333Z,3856
2019-03-24T14:04:09.496Z,3984
2019-03-24T14:05:11.197Z,4112
2019-03-24T14:07:52.035Z,3896
2019-03-24T14:11:32.311Z,3332
2019-03-24T14:25:04.261Z,4008
2019-03-24T14:31:35.542Z,4352
2019-03-24T14:32:36.471Z,4256
2019-03-24T14:37:35.835Z,3732
2019-03-24T14:38:34.544Z,3604
2019-03-24T14:39:33.350Z,3492
2019-03-24T14:43:55.324Z,3408
2019-03-24T14:46:36.451Z,3524
2019-03-24T14:48:59.666Z,3284
2019-03-24T14:51:40.018Z,2928
2019-03-24T14:52:38.690Z,3008
2019-03-24T14:53:37.334Z,3168
2019-03-24T14:56:34.169Z,3024
2019-03-24T14:57:32.800Z,2936
2019-03-24T15:00:13.968Z,2764
2019-03-24T15:02:30.778Z,3252
2019-03-24T15:03:30.050Z,3432
2019-03-24T15:04:28.699Z,3500
2019-03-24T15:07:08.973Z,3628
2019-03-24T15:08:07.896Z,3620
2019-03-24T15:09:07.023Z,3628
2019-03-24T15:10:06.819Z,3528
2019-03-24T15:12:47.119Z,2948
2019-03-24T15:13:46.666Z,2796
2019-03-24T15:14:45.468Z,2748
2019-03-24T15:17:28.652Z,2928
2019-03-24T15:18:28.304Z,2968
2019-03-24T15:19:28.052Z,3020
2019-03-24T15:20:26.903Z,3056
2019-03-24T15:23:07.313Z,2992
2019-03-24T15:25:47.674Z,2616
2019-03-24T15:28:28.410Z,2460
2019-03-24T15:32:05.233Z,2500
2019-03-24T15:35:47.978Z,2548
2019-03-24T15:36:47.163Z,2496
2019-03-24T15:37:47.186Z,2456
2019-03-24T15:40:30.731Z,2432
2019-03-24T15:43:13.908Z,2348
2019-03-24T15:44:12.559Z,2316
2019-03-24T15:45:11.287Z,2276
2019-03-24T15:47:52.080Z,2152
2019-03-24T15:50:32.682Z,2056
2019-03-24T15:54:13.373Z,2012
2019-03-24T15:57:02.640Z,2004
2019-03-24T15:59:42.943Z,1980
2019-03-24T16:00:41.668Z,1956
2019-03-24T16:01:40.682Z,1912
2019-03-24T16:02:39.626Z,1876
2019-03-24T16:05:20.018Z,1804
2019-03-24T16:06:19.026Z,1780
2019-03-24T16:22:33.185Z,1392
2019-03-24T16:23:31.896Z,1336
2019-03-24T16:24:31.483Z,1284
2019-03-24T16:27:19.234Z,1132
2019-03-24T16:29:59.587Z,1096
2019-03-24T16:30:59.496Z,1112
2019-03-24T16:35:28.790Z,1336
2019-03-24T16:36:29.891Z,1336
2019-03-24T16:37:28.624Z,1320
2019-03-24T16:38:31.468Z,1292
2019-03-24T16:41:08.613Z,1228
2019-03-24T16:42:07.386Z,1196
2019-03-24T16:44:13.098Z,1096
2019-03-24T16:47:12.868Z,924
2019-03-24T16:48:13.085Z,816
2019-03-24T16:52:37.034Z,660
2019-03-24T17:00:20.467Z,476
2019-03-24T17:01:23.094Z,428
2019-03-24T17:03:51.463Z,296
2019-03-24T17:04:54.010Z,268
2019-03-24T17:06:09.985Z,256
2019-03-24T17:38:40.887Z,40
2019-03-24T17:39:42.930Z,32
2019-03-24T17:40:41.583Z,28
2019-03-24T17:43:21.794Z,24
2019-03-24T17:44:20.591Z,24
2019-03-24T17:45:19.266Z,24
2019-03-24T17:46:19.498Z,24
2019-03-24T17:47:17.139Z,20
2019-03-24T17:48:15.860Z,20
2019-03-24T17:49:14.936Z,20
2019-03-24T17:50:13.775Z,16
2019-03-24T17:51:12.610Z,20
2019-03-24T17:52:11.242Z,16
2019-03-24T17:53:09.880Z,12
2019-03-24T17:54:08.711Z,12
2019-03-24T17:55:07.384Z,8
2019-03-24T17:58:58.295Z,4
2019-03-24T18:01:14.983Z,4
2019-03-24T18:02:15.916Z,0
2019-03-24T18:03:23.429Z,0
2019-03-24T18:05:21.881Z,4
2019-03-24T18:10:48.517Z,0
2019-03-24T18:15:54.213Z,0
2019-03-24T18:16:52.866Z,0
2019-03-24T18:17:51.676Z,0
2019-03-24T18:18:50.508Z,0
2019-03-24T18:19:49.540Z,0
2019-03-24T18:20:48.506Z,0